KBKS

Brooks County Airport

Falfurrias, Texas, USA
METAR KBKS 280115Z AUTO 11010G15KT 4SM CLR 31/19 A2976 RMK AO1 T03110194
Observed Flight Rules
May-28 @ 01:15 UTC (9 minutes ago) Marginal Visual Flight Rules
Wind Visibility Clouds
110° at 10 knots
 Gusting to 15 knots
4 miles
  • Clear skies
Temperatures Readings
Current 31°C / 88°F
Dewpoint 19°C / 66°F
Humidity 49%
Altimeter 29.76" Hg
Pressure 1008 hPa
Elevation 34
METAR KBKS 280115Z AUTO 11010G15KT 4SM CLR 31/19 A2976 RMK AO1 T03110194
Observed Flight Rules
May-28 @ 01:15 UTC
(9 minutes ago)
MVFR
Wind Visibility
110° at 10 knots
 Gusting to 15 knots
4 miles
Clouds
  • Clear skies
Temperature Dewpoint
31°C / 88°F 19°C / 66°F
Humidity Altimeter Pressure
49% 29.76" Hg 1008 hPa